Time;durP1;ratioP1;P1;durP2;ratioP2;P2;SDS_P1;SDS_P2;PMS_P1;PMS_P2;Temp;Humidity;BMP_temperature;BMP_pressure;BME280_temperature;BME280_humidity;BME280_pressure;Samples;Min_cycle;Max_cycle;Signal;HPM_P1;HPM_P2
2024/03/11 00:01:49;;;;;;;10.65;2.10;;;;;;;6.33;100.00;99623.03;5131677;27;20035;-65
2024/03/11 00:04:15;;;;;;;6.72;1.98;;;;;;;6.35;100.00;99619.50;5131598;27;20655;-65
2024/03/11 00:06:44;;;;;;;5.28;1.70;;;;;;;6.30;100.00;99619.91;5131144;27;20059;-65
2024/03/11 00:09:19;;;;;;;5.65;1.77;;;;;;;6.26;100.00;99619.38;5131137;27;20557;-65
2024/03/11 00:11:55;;;;;;;3.65;1.58;;;;;;;6.20;100.00;99625.09;5126210;27;20043;-65
2024/03/11 00:14:25;;;;;;;5.93;1.20;;;;;;;6.17;100.00;99633.13;5131627;27;22543;-65
2024/03/11 00:16:54;;;;;;;7.78;1.63;;;;;;;6.15;100.00;99632.44;5133151;27;20118;-65
2024/03/11 00:19:20;;;;;;;8.13;1.38;;;;;;;6.02;100.00;99629.31;5129146;27;20031;-65
2024/03/11 00:21:45;;;;;;;7.90;2.05;;;;;;;5.96;100.00;99624.69;5131317;27;20497;-65
2024/03/11 00:24:11;;;;;;;28.73;3.17;;;;;;;5.94;100.00;99632.59;5131520;27;20027;-65
2024/03/11 00:26:36;;;;;;;15.93;2.45;;;;;;;5.94;100.00;99642.09;5130354;27;20057;-65
2024/03/11 00:29:03;;;;;;;6.15;1.58;;;;;;;5.92;100.00;99637.06;5130049;27;20026;-65
2024/03/11 00:31:32;;;;;;;4.70;1.90;;;;;;;5.91;100.00;99632.03;5131875;27;20027;-65
2024/03/11 00:33:58;;;;;;;9.32;2.22;;;;;;;5.89;100.00;99641.69;5130484;27;20430;-65
2024/03/11 00:36:24;;;;;;;6.93;1.27;;;;;;;5.87;100.00;99638.38;5128338;27;20428;-65
2024/03/11 00:38:49;;;;;;;5.45;1.98;;;;;;;5.93;100.00;99641.28;5131469;27;20027;-65
2024/03/11 00:41:15;;;;;;;5.25;2.08;;;;;;;6.07;100.00;99645.25;5129743;27;20587;-65
2024/03/11 00:43:42;;;;;;;11.77;2.15;;;;;;;5.98;100.00;99640.88;5134524;27;20047;-65
2024/03/11 00:46:09;;;;;;;8.82;1.63;;;;;;;5.84;100.00;99643.81;5128524;27;20145;-65
2024/03/11 00:48:36;;;;;;;4.72;1.65;;;;;;;5.76;100.00;99633.34;5130788;27;20080;-65
2024/03/11 00:51:04;;;;;;;9.25;1.77;;;;;;;5.68;100.00;99631.41;5130103;27;20031;-65
2024/03/11 00:53:29;;;;;;;4.85;1.40;;;;;;;5.63;100.00;99629.25;5129410;27;20051;-65
2024/03/11 00:55:56;;;;;;;9.57;1.95;;;;;;;5.59;100.00;99630.47;5131747;27;20089;-65
2024/03/11 00:58:23;;;;;;;11.32;2.58;;;;;;;5.56;100.00;99628.16;5106876;27;20116;-65
2024/03/11 01:00:49;;;;;;;13.82;2.50;;;;;;;5.50;100.00;99628.69;5130062;27;20462;-65
2024/03/11 01:03:16;;;;;;;4.88;1.83;;;;;;;5.48;100.00;99628.00;5129660;27;20107;-65
2024/03/11 01:05:41;;;;;;;5.50;1.60;;;;;;;5.46;100.00;99635.06;5132264;27;20485;-65
2024/03/11 01:08:07;;;;;;;11.85;2.38;;;;;;;5.47;100.00;99644.44;5129416;27;20046;-65
2024/03/11 01:10:32;;;;;;;7.70;2.08;;;;;;;5.49;100.00;99660.63;5132007;27;20047;-65
2024/03/11 01:12:58;;;;;;;8.80;3.00;;;;;;;5.51;100.00;99645.81;5130823;27;20027;-65
2024/03/11 01:15:25;;;;;;;5.43;2.05;;;;;;;5.56;100.00;99635.91;5126836;27;20031;-65
2024/03/11 01:17:51;;;;;;;20.30;2.33;;;;;;;5.63;100.00;99639.59;5129829;27;20050;-65
2024/03/11 01:20:17;;;;;;;12.15;2.55;;;;;;;5.64;100.00;99630.06;5127804;27;20115;-65
2024/03/11 01:22:42;;;;;;;14.60;2.67;;;;;;;5.62;100.00;99632.78;5130052;27;20046;-65
2024/03/11 01:25:09;;;;;;;8.65;2.47;;;;;;;5.62;100.00;99644.91;5129805;27;20043;-65
2024/03/11 01:27:35;;;;;;;8.75;2.35;;;;;;;5.60;100.00;99637.28;5128807;27;20023;-65
2024/03/11 01:30:01;;;;;;;6.10;1.70;;;;;;;5.70;100.00;99636.44;5112745;27;20436;-65
2024/03/11 01:32:30;;;;;;;4.72;1.48;;;;;;;5.89;100.00;99631.34;5128373;27;20051;-65
2024/03/11 01:34:57;;;;;;;6.55;1.38;;;;;;;5.93;100.00;99630.13;5109875;27;20126;-65
2024/03/11 01:37:22;;;;;;;2.03;0.73;;;;;;;5.97;100.00;99621.16;5130760;27;20027;-65
2024/03/11 01:39:51;;;;;;;1.77;0.40;;;;;;;6.10;100.00;99621.72;5128533;27;20386;-65
2024/03/11 01:42:19;;;;;;;1.90;0.60;;;;;;;6.21;100.00;99618.13;5123725;27;20035;-66
2024/03/11 01:44:53;;;;;;;2.72;0.52;;;;;;;6.11;100.00;99625.13;5129774;27;20043;-65
2024/03/11 01:47:21;;;;;;;3.35;0.90;;;;;;;5.94;100.00;99614.47;5129365;27;20032;-65
2024/03/11 01:49:52;;;;;;;2.88;0.50;;;;;;;5.87;100.00;99607.38;5129270;27;20023;-65
2024/03/11 01:52:22;;;;;;;4.97;0.60;;;;;;;5.86;100.00;99605.72;5130580;27;20370;-65
2024/03/11 01:54:48;;;;;;;1.17;0.35;;;;;;;5.94;100.00;99595.56;5126497;27;20113;-65
2024/03/11 01:57:15;;;;;;;5.00;0.40;;;;;;;5.96;100.00;99597.06;5129478;27;20122;-65
2024/03/11 01:59:42;;;;;;;2.15;0.70;;;;;;;5.88;100.00;99583.97;5128726;27;20496;-65
2024/03/11 02:02:07;;;;;;;1.33;0.55;;;;;;;5.83;100.00;99590.50;5128976;27;20035;-65
2024/03/11 02:04:45;;;;;;;0.85;0.40;;;;;;;5.71;100.00;99591.56;5127940;27;20551;-65
2024/03/11 02:07:14;;;;;;;1.30;0.40;;;;;;;5.67;100.00;99584.06;5108085;27;20076;-65
2024/03/11 02:09:41;;;;;;;2.22;0.52;;;;;;;5.64;100.00;99579.22;5129917;27;20042;-65
2024/03/11 02:12:08;;;;;;;5.13;0.40;;;;;;;5.61;100.00;99574.31;5128455;27;20547;-65
2024/03/11 02:14:35;;;;;;;1.05;0.30;;;;;;;5.65;100.00;99565.34;5108899;27;20035;-66
2024/03/11 02:17:01;;;;;;;2.03;0.20;;;;;;;5.73;100.00;99564.63;5127358;27;20031;-65
2024/03/11 02:19:27;;;;;;;1.15;0.20;;;;;;;5.89;100.00;99556.38;5129460;27;20031;-65
2024/03/11 02:21:52;;;;;;;0.28;0.10;;;;;;;6.02;100.00;99548.34;5129992;27;20041;-65
2024/03/11 02:24:18;;;;;;;0.40;0.10;;;;;;;5.98;100.00;99555.56;5129147;27;20078;-65
2024/03/11 02:26:48;;;;;;;3.20;0.20;;;;;;;5.87;100.00;99553.91;5129567;27;20053;-65
2024/03/11 02:29:20;;;;;;;0.68;0.10;;;;;;;5.65;100.00;99555.00;5124023;27;20031;-65
2024/03/11 02:31:47;;;;;;;0.73;0.10;;;;;;;5.52;100.00;99554.44;5126320;27;20043;-65
2024/03/11 02:34:14;;;;;;;1.10;0.20;;;;;;;5.54;100.00;99557.69;5129064;27;20436;-65
2024/03/11 02:36:46;;;;;;;1.02;0.20;;;;;;;5.62;100.00;99551.88;5128736;27;20083;-65
2024/03/11 02:39:14;;;;;;;0.30;0.08;;;;;;;5.77;100.00;99549.69;5126103;27;20050;-65
2024/03/11 02:41:40;;;;;;;2.58;0.10;;;;;;;5.85;100.00;99550.63;5124144;27;20439;-66
2024/03/11 02:44:08;;;;;;;0.22;0.08;;;;;;;5.86;100.00;99531.59;5127427;27;20031;-66
2024/03/11 02:46:37;;;;;;;1.98;0.10;;;;;;;5.90;100.00;99535.56;5128390;27;20367;-65
2024/03/11 02:49:03;;;;;;;1.38;0.15;;;;;;;5.92;100.00;99535.41;5128036;27;20061;-65
2024/03/11 02:51:30;;;;;;;3.13;0.10;;;;;;;5.93;100.00;99535.28;5129674;27;20069;-65
2024/03/11 02:53:56;;;;;;;1.55;0.10;;;;;;;5.92;100.00;99523.31;5126866;27;20842;-65
2024/03/11 02:56:22;;;;;;;0.20;0.10;;;;;;;5.86;100.00;99525.59;5128678;27;20027;-65
2024/03/11 02:58:48;;;;;;;0.28;0.20;;;;;;;5.77;100.00;99529.00;5129671;27;20394;-65
2024/03/11 03:01:13;;;;;;;0.70;0.10;;;;;;;5.72;100.00;99528.59;5126120;27;20019;-65
2024/03/11 03:03:39;;;;;;;0.95;0.30;;;;;;;5.66;100.00;99525.63;5130315;27;20039;-65
2024/03/11 03:06:06;;;;;;;1.23;0.57;;;;;;;5.62;100.00;99511.34;5128550;27;20043;-65
2024/03/11 03:08:32;;;;;;;1.63;0.52;;;;;;;5.63;100.00;99501.81;5129509;27;20494;-66
2024/03/11 03:11:02;;;;;;;2.65;0.30;;;;;;;5.73;100.00;99506.97;5128035;27;20054;-66
2024/03/11 03:13:28;;;;;;;0.52;0.20;;;;;;;5.75;100.00;99510.22;5126945;27;20033;-66
2024/03/11 03:15:54;;;;;;;1.77;0.10;;;;;;;5.84;100.00;99509.41;5127367;27;20032;-66
2024/03/11 03:18:20;;;;;;;0.68;0.10;;;;;;;5.89;100.00;99505.50;5132174;27;20070;-66
2024/03/11 03:20:47;;;;;;;0.80;0.20;;;;;;;5.90;100.00;99498.56;5132342;27;20054;-66
2024/03/11 03:23:13;;;;;;;0.30;0.10;;;;;;;5.88;100.00;99492.66;5133117;27;20057;-65
2024/03/11 03:25:38;;;;;;;3.25;0.20;;;;;;;5.90;100.00;99501.13;5133029;27;20413;-65
2024/03/11 03:28:05;;;;;;;2.45;0.20;;;;;;;5.89;100.00;99504.66;5129730;27;20015;-65
2024/03/11 03:30:32;;;;;;;0.60;0.10;;;;;;;5.89;100.00;99502.09;5133150;27;20023;-65
2024/03/11 03:32:59;;;;;;;2.00;0.32;;;;;;;5.88;100.00;99506.41;5130062;27;20038;-65
2024/03/11 03:35:25;;;;;;;1.02;0.20;;;;;;;5.89;100.00;99497.72;5130607;27;20478;-65
2024/03/11 03:37:51;;;;;;;0.95;0.20;;;;;;;5.91;100.00;99495.81;5133699;27;20045;-65
2024/03/11 03:40:17;;;;;;;0.47;0.10;;;;;;;5.97;100.00;99497.03;5131572;27;20129;-65
2024/03/11 03:42:44;;;;;;;0.73;0.10;;;;;;;5.98;100.00;99496.09;5132418;27;20134;-65
2024/03/11 03:45:10;;;;;;;1.25;0.20;;;;;;;5.98;100.00;99496.09;5127931;27;20501;-65
2024/03/11 03:47:36;;;;;;;1.63;0.20;;;;;;;5.99;100.00;99492.56;5131801;27;20031;-65
2024/03/11 03:50:02;;;;;;;1.65;0.20;;;;;;;6.02;100.00;99488.88;5131186;27;20118;-65
2024/03/11 03:52:29;;;;;;;0.85;0.20;;;;;;;6.02;100.00;99476.75;5132858;27;20460;-65
2024/03/11 03:54:54;;;;;;;0.82;0.10;;;;;;;6.03;100.00;99472.41;5132305;27;20470;-65
2024/03/11 03:57:20;;;;;;;1.15;0.20;;;;;;;6.01;100.00;99472.53;5129408;27;23746;-65
2024/03/11 03:59:45;;;;;;;1.23;0.20;;;;;;;6.00;100.00;99470.91;5131360;27;20084;-65
2024/03/11 04:02:12;;;;;;;0.40;0.10;;;;;;;6.01;100.00;99463.97;5130785;27;20027;-65
2024/03/11 04:04:39;;;;;;;0.40;0.10;;;;;;;5.98;100.00;99463.28;5132778;27;20039;-65
2024/03/11 04:07:05;;;;;;;0.90;0.10;;;;;;;5.99;100.00;99452.00;5130438;27;20027;-65
2024/03/11 04:09:30;;;;;;;1.88;0.20;;;;;;;5.99;100.00;99446.00;5133050;27;20373;-65
2024/03/11 04:11:56;;;;;;;2.08;0.10;;;;;;;6.03;100.00;99447.38;5109893;27;20055;-65
2024/03/11 04:14:22;;;;;;;1.88;0.28;;;;;;;6.07;100.00;99448.72;5131464;27;20027;-65
2024/03/11 04:16:48;;;;;;;1.08;0.52;;;;;;;6.09;100.00;99457.16;5130271;27;20088;-65
2024/03/11 04:19:13;;;;;;;1.00;0.50;;;;;;;6.11;100.00;99460.41;5127870;27;20439;-65
2024/03/11 04:21:39;;;;;;;1.50;0.30;;;;;;;6.12;100.00;99459.47;5132211;27;20039;-65
2024/03/11 04:24:05;;;;;;;1.05;0.30;;;;;;;6.14;100.00;99449.78;5131016;27;20031;-65
2024/03/11 04:26:31;;;;;;;2.85;0.43;;;;;;;6.16;100.00;99453.03;5131748;27;20518;-65
2024/03/11 04:28:58;;;;;;;1.77;0.25;;;;;;;6.17;100.00;99449.47;5130134;27;20027;-65
2024/03/11 04:31:24;;;;;;;1.92;0.20;;;;;;;6.17;100.00;99453.84;5130560;27;20102;-65
2024/03/11 04:33:50;;;;;;;0.75;0.20;;;;;;;6.16;100.00;99463.38;5125307;27;20451;-66
2024/03/11 04:36:16;;;;;;;1.95;0.30;;;;;;;6.12;100.00;99462.03;5131264;27;20110;-66
2024/03/11 04:38:42;;;;;;;4.72;0.20;;;;;;;6.14;100.00;99462.72;5131042;27;20490;-66
2024/03/11 04:41:07;;;;;;;2.13;0.28;;;;;;;6.14;100.00;99461.91;5125619;27;20043;-65
2024/03/11 04:43:36;;;;;;;3.47;0.25;;;;;;;6.13;100.00;99457.69;5125785;27;20444;-65
2024/03/11 04:46:02;;;;;;;0.50;0.20;;;;;;;6.14;100.00;99459.31;5125335;27;20079;-65
2024/03/11 04:48:28;;;;;;;0.20;0.00;;;;;;;6.12;100.00;99454.28;5110459;27;20435;-65
2024/03/11 04:50:53;;;;;;;0.20;0.10;;;;;;;6.09;100.00;99453.75;5127863;27;20102;-65
2024/03/11 04:53:19;;;;;;;0.20;0.00;;;;;;;6.13;100.00;99448.16;5124985;27;20079;-65
2024/03/11 04:55:44;;;;;;;0.22;0.00;;;;;;;6.14;100.00;99454.97;5132079;27;20023;-65
2024/03/11 04:58:10;;;;;;;0.43;0.00;;;;;;;6.13;100.00;99450.75;5123551;27;20139;-65
2024/03/11 05:00:35;;;;;;;0.43;0.00;;;;;;;6.13;100.00;99448.16;5125270;27;20032;-65
2024/03/11 05:03:03;;;;;;;0.73;0.10;;;;;;;6.16;100.00;99453.03;5131499;27;20019;-65
2024/03/11 05:05:35;;;;;;;0.82;0.10;;;;;;;6.22;100.00;99457.63;5125339;27;20028;-65
2024/03/11 05:08:03;;;;;;;0.63;0.10;;;;;;;6.21;100.00;99455.19;5125973;27;20031;-65
2024/03/11 05:10:29;;;;;;;0.55;0.10;;;;;;;6.24;100.00;99466.06;5127671;27;20060;-65
2024/03/11 05:12:55;;;;;;;4.68;0.10;;;;;;;6.22;100.00;99465.41;5120785;27;20027;-65
2024/03/11 05:15:21;;;;;;;0.57;0.10;;;;;;;6.25;100.00;99472.06;5130903;27;20038;-65
2024/03/11 05:17:47;;;;;;;0.40;0.10;;;;;;;6.24;100.00;99467.84;5124490;27;20055;-66
2024/03/11 05:20:14;;;;;;;0.90;0.10;;;;;;;6.26;100.00;99468.50;5127904;27;20063;-65
2024/03/11 05:22:44;;;;;;;1.55;0.20;;;;;;;6.22;100.00;99467.16;5130643;27;20464;-65
2024/03/11 05:25:17;;;;;;;1.15;0.20;;;;;;;6.24;100.00;99476.41;5128076;27;20034;-65
2024/03/11 05:27:47;;;;;;;1.25;0.15;;;;;;;6.23;100.00;99484.31;5130790;27;20031;-65
2024/03/11 05:30:14;;;;;;;2.75;0.35;;;;;;;6.22;100.00;99475.75;5126025;27;20122;-65
2024/03/11 05:32:40;;;;;;;1.73;0.30;;;;;;;6.20;100.00;99472.47;5125743;27;20045;-65
2024/03/11 05:35:06;;;;;;;0.80;0.17;;;;;;;6.20;100.00;99475.06;5125858;27;20435;-66
2024/03/11 05:37:35;;;;;;;1.17;0.38;;;;;;;6.21;100.00;99468.94;5129138;27;20027;-65
2024/03/11 05:40:01;;;;;;;1.52;0.30;;;;;;;6.18;100.00;99471.81;5128511;27;20027;-66
2024/03/11 05:42:26;;;;;;;7.43;0.20;;;;;;;6.16;100.00;99465.94;5126260;27;20029;-65
2024/03/11 05:44:52;;;;;;;0.70;0.20;;;;;;;6.17;100.00;99461.59;5126917;27;20429;-65
2024/03/11 05:47:17;;;;;;;0.47;0.13;;;;;;;6.16;100.00;99470.31;5128420;27;20095;-66
2024/03/11 05:49:43;;;;;;;2.35;0.10;;;;;;;6.15;100.00;99469.50;5129891;27;20080;-65
2024/03/11 05:52:09;;;;;;;0.85;0.10;;;;;;;6.06;100.00;99478.13;5126851;27;20492;-65
2024/03/11 05:54:38;;;;;;;1.42;0.20;;;;;;;6.02;100.00;99473.34;5128804;27;20031;-65
2024/03/11 05:57:04;;;;;;;3.45;0.73;;;;;;;5.93;100.00;99483.56;5129427;27;20042;-65
2024/03/11 05:59:31;;;;;;;1.60;0.52;;;;;;;5.88;100.00;99482.31;5129646;27;20436;-65
2024/03/11 06:02:00;;;;;;;1.77;0.57;;;;;;;5.93;100.00;99483.56;5125950;27;20031;-65
2024/03/11 06:04:26;;;;;;;1.45;0.68;;;;;;;6.04;100.00;99490.38;5130039;27;20125;-65
2024/03/11 06:06:52;;;;;;;2.42;0.60;;;;;;;6.10;100.00;99494.97;5130874;27;20551;-66
2024/03/11 06:09:17;;;;;;;1.25;0.35;;;;;;;6.17;100.00;99497.81;5130016;27;20042;-65
2024/03/11 06:11:44;;;;;;;0.40;0.10;;;;;;;6.23;100.00;99505.81;5130786;27;20043;-65
2024/03/11 06:14:13;;;;;;;1.20;0.20;;;;;;;6.26;100.00;99502.97;5129771;27;20035;-65
2024/03/11 06:16:39;;;;;;;1.90;0.20;;;;;;;6.31;100.00;99503.34;5130723;27;20505;-65
2024/03/11 06:19:07;;;;;;;0.60;0.20;;;;;;;6.35;100.00;99505.66;5129941;27;20490;-65
2024/03/11 06:21:33;;;;;;;1.02;0.20;;;;;;;6.39;100.00;99499.25;5130738;27;20346;-65
2024/03/11 06:23:59;;;;;;;0.32;0.10;;;;;;;6.41;100.00;99503.34;5130814;27;20027;-65
2024/03/11 06:26:28;;;;;;;0.40;0.10;;;;;;;6.44;100.00;99497.88;5129759;27;20031;-65
2024/03/11 06:28:59;;;;;;;1.05;0.22;;;;;;;6.46;100.00;99498.56;5130375;27;20019;-65
2024/03/11 06:31:24;;;;;;;2.05;0.20;;;;;;;6.48;100.00;99493.22;5129785;27;20519;-65
2024/03/11 06:33:50;;;;;;;0.60;0.10;;;;;;;6.48;100.00;99488.88;5130570;27;20039;-65
2024/03/11 06:36:16;;;;;;;2.85;0.15;;;;;;;6.49;100.00;99493.09;5129859;27;20042;-65
2024/03/11 06:38:43;;;;;;;0.45;0.10;;;;;;;6.52;100.00;99492.81;5130493;27;20080;-66
2024/03/11 06:41:08;;;;;;;0.50;0.10;;;;;;;6.55;100.00;99504.66;5129012;27;20114;-65
2024/03/11 06:43:34;;;;;;;0.38;0.10;;;;;;;6.60;100.00;99502.47;5124255;27;20114;-65
2024/03/11 06:45:59;;;;;;;0.63;0.10;;;;;;;6.63;100.00;99502.97;5130065;27;20045;-65
2024/03/11 06:48:25;;;;;;;2.58;0.10;;;;;;;6.69;100.00;99496.41;5127511;27;20039;-65
2024/03/11 06:50:51;;;;;;;0.40;0.10;;;;;;;6.68;100.00;99499.94;5127228;27;20042;-65
2024/03/11 06:53:17;;;;;;;0.73;0.10;;;;;;;6.69;100.00;99505.94;5125972;27;20031;-65
2024/03/11 06:55:43;;;;;;;1.58;0.10;;;;;;;6.76;100.00;99505.22;5130000;27;20045;-65
2024/03/11 06:58:09;;;;;;;1.13;0.35;;;;;;;6.80;100.00;99519.53;5130676;27;20031;-65
2024/03/11 07:00:34;;;;;;;0.30;0.10;;;;;;;6.82;100.00;99517.59;5132357;27;20027;-65
2024/03/11 07:03:00;;;;;;;0.30;0.10;;;;;;;6.85;100.00;99521.69;5131012;27;20027;-66
2024/03/11 07:05:28;;;;;;;0.28;0.10;;;;;;;6.84;100.00;99520.88;5133603;27;20039;-65
2024/03/11 07:07:55;;;;;;;1.15;0.10;;;;;;;6.85;100.00;99516.50;5132126;27;20091;-65
2024/03/11 07:10:21;;;;;;;0.93;0.10;;;;;;;6.87;100.00;99525.75;5128483;27;20051;-65
2024/03/11 07:12:46;;;;;;;0.82;0.10;;;;;;;6.87;100.00;99536.13;5129024;27;20331;-65
2024/03/11 07:15:12;;;;;;;2.08;0.00;;;;;;;6.91;100.00;99542.63;5130829;27;20083;-65
2024/03/11 07:17:38;;;;;;;0.47;0.10;;;;;;;6.93;100.00;99535.53;5132119;27;20031;-65
2024/03/11 07:20:07;;;;;;;0.30;0.10;;;;;;;6.97;100.00;99530.91;5131264;27;20046;-65
2024/03/11 07:22:35;;;;;;;1.58;0.10;;;;;;;7.01;100.00;99537.41;5129228;27;20153;-65
2024/03/11 07:25:09;;;;;;;0.30;0.10;;;;;;;7.04;100.00;99528.53;5130111;27;20038;-65
2024/03/11 07:27:37;;;;;;;0.20;0.00;;;;;;;7.04;100.00;99531.13;5131947;27;20062;-66
2024/03/11 07:30:06;;;;;;;0.63;0.10;;;;;;;7.06;100.00;99544.75;5108338;27;20023;-65
2024/03/11 07:32:32;;;;;;;0.20;0.10;;;;;;;7.09;100.00;99534.13;5133913;27;20461;-65
2024/03/11 07:34:57;;;;;;;0.90;0.10;;;;;;;7.11;100.00;99537.34;5133432;27;20023;-66
2024/03/11 07:37:25;;;;;;;2.88;0.25;;;;;;;7.14;100.00;99531.88;5128763;27;20031;-65
2024/03/11 07:39:52;;;;;;;0.70;0.10;;;;;;;7.16;100.00;99528.19;5132599;27;20390;-65
2024/03/11 07:42:19;;;;;;;2.83;0.10;;;;;;;7.18;100.00;99521.06;5130714;27;20367;-65
2024/03/11 07:44:46;;;;;;;0.50;0.10;;;;;;;7.21;100.00;99514.78;5133718;27;20035;-65
2024/03/11 07:47:12;;;;;;;0.25;0.00;;;;;;;7.24;100.00;99510.13;5132574;27;20525;-65
2024/03/11 07:49:38;;;;;;;0.77;0.00;;;;;;;7.27;100.00;99504.66;5133227;27;20387;-65
2024/03/11 07:52:04;;;;;;;0.50;0.08;;;;;;;7.30;100.00;99501.78;5130593;27;20385;-65
2024/03/11 07:54:29;;;;;;;3.08;0.10;;;;;;;7.34;100.00;99499.72;5132055;27;20027;-65
2024/03/11 07:56:56;;;;;;;3.03;0.10;;;;;;;7.33;100.00;99501.50;5131030;27;20118;-65
2024/03/11 07:59:22;;;;;;;3.20;0.20;;;;;;;7.40;100.00;99496.53;5131124;27;20027;-65
2024/03/11 08:01:47;;;;;;;0.77;0.10;;;;;;;7.42;100.00;99491.19;5133339;27;20031;-65
2024/03/11 08:04:13;;;;;;;0.82;0.20;;;;;;;7.46;100.00;99501.13;5129385;27;20036;-65
2024/03/11 08:06:39;;;;;;;2.47;0.10;;;;;;;7.48;100.00;99494.03;5116061;27;20095;-65
2024/03/11 08:09:07;;;;;;;3.92;0.10;;;;;;;7.52;100.00;99494.53;5132813;27;20019;-65
2024/03/11 08:11:35;;;;;;;0.20;0.10;;;;;;;7.57;100.00;99497.47;5130835;27;20138;-65
2024/03/11 08:14:02;;;;;;;0.60;0.10;;;;;;;7.56;100.00;99499.25;5130489;27;20034;-65
2024/03/11 08:16:28;;;;;;;1.20;0.10;;;;;;;7.61;100.00;99504.81;5127907;27;20475;-65
2024/03/11 08:18:54;;;;;;;2.75;0.05;;;;;;;7.68;100.00;99499.84;5128502;27;20019;-66
2024/03/11 08:21:20;;;;;;;1.25;0.13;;;;;;;7.77;100.00;99511.91;5129661;27;20139;-66
2024/03/11 08:23:46;;;;;;;1.08;0.15;;;;;;;7.81;100.00;99515.84;5132998;27;20114;-66
2024/03/11 08:26:12;;;;;;;2.83;0.10;;;;;;;7.83;100.00;99513.91;5129833;27;20468;-66
2024/03/11 08:28:39;;;;;;;0.40;0.00;;;;;;;7.86;100.00;99507.63;5132858;27;20023;-65
2024/03/11 08:31:07;;;;;;;0.65;0.20;;;;;;;7.88;100.00;99505.69;5131903;27;20355;-65
2024/03/11 08:33:36;;;;;;;1.67;0.13;;;;;;;7.97;100.00;99494.41;5132932;27;20035;-65
2024/03/11 08:36:05;;;;;;;0.93;0.10;;;;;;;7.99;100.00;99502.88;5131597;27;20028;-65
2024/03/11 08:38:33;;;;;;;1.05;0.10;;;;;;;7.98;100.00;99515.03;5124369;27;20024;-65
2024/03/11 08:41:05;;;;;;;0.40;0.10;;;;;;;8.09;100.00;99516.53;5131866;27;20038;-65
2024/03/11 08:43:31;;;;;;;1.55;0.10;;;;;;;8.14;100.00;99503.91;5128103;27;20109;-65
2024/03/11 08:45:57;;;;;;;0.40;0.10;;;;;;;8.24;100.00;99507.22;5131977;27;20031;-66
2024/03/11 08:48:23;;;;;;;0.52;0.00;;;;;;;8.27;100.00;99512.13;5132456;27;20035;-66
2024/03/11 08:50:49;;;;;;;0.63;0.20;;;;;;;8.32;100.00;99515.09;5112875;27;20034;-65
2024/03/11 08:53:15;;;;;;;0.98;0.10;;;;;;;8.45;100.00;99519.91;5134685;27;20023;-65
2024/03/11 08:55:41;;;;;;;0.70;0.30;;;;;;;8.46;100.00;99526.72;5131710;27;20113;-65
2024/03/11 08:58:06;;;;;;;2.10;0.20;;;;;;;8.32;100.00;99528.09;5111170;27;20110;-65
2024/03/11 09:00:36;;;;;;;0.73;0.20;;;;;;;8.24;100.00;99535.78;5132875;27;20163;-65
2024/03/11 09:03:03;;;;;;;0.95;0.20;;;;;;;8.25;100.00;99539.19;5132864;27;20035;-65
2024/03/11 09:05:29;;;;;;;0.60;0.20;;;;;;;8.20;100.00;99544.84;5111086;27;20032;-65
2024/03/11 09:07:56;;;;;;;4.93;0.20;;;;;;;8.19;100.00;99550.16;5130857;27;20309;-65
2024/03/11 09:10:22;;;;;;;0.75;0.30;;;;;;;8.08;100.00;99537.44;5129953;27;20055;-66
2024/03/11 09:12:49;;;;;;;1.77;0.30;;;;;;;8.11;100.00;99540.53;5132322;27;20367;-66
2024/03/11 09:15:18;;;;;;;1.20;0.22;;;;;;;8.18;100.00;99538.97;5128565;27;20428;-65
2024/03/11 09:17:49;;;;;;;2.88;0.43;;;;;;;8.16;100.00;99530.53;5122063;27;20494;-65
2024/03/11 09:20:15;;;;;;;2.25;0.57;;;;;;;8.15;100.00;99536.69;5112050;27;20398;-65
2024/03/11 09:22:48;;;;;;;1.50;0.40;;;;;;;8.25;100.00;99528.81;5103975;27;20482;-65
2024/03/11 09:25:17;;;;;;;2.88;0.50;;;;;;;8.29;100.00;99519.75;5129297;27;20110;-66
2024/03/11 09:27:48;;;;;;;1.25;0.30;;;;;;;8.39;100.00;99519.69;5128239;27;20043;-66
2024/03/11 09:30:14;;;;;;;3.53;0.57;;;;;;;8.48;100.00;99517.00;5131267;27;20042;-66
2024/03/11 09:32:43;;;;;;;2.45;0.40;;;;;;;8.56;100.00;99511.81;5130061;27;20114;-66
2024/03/11 09:35:09;;;;;;;2.63;0.30;;;;;;;8.67;100.00;99512.53;5124246;27;20047;-65
2024/03/11 09:37:34;;;;;;;1.20;0.25;;;;;;;8.73;100.00;99506.72;5127500;27;20096;-65
2024/03/11 09:40:08;;;;;;;4.03;0.30;;;;;;;8.78;100.00;99505.28;5128533;27;20490;-65
2024/03/11 09:42:36;;;;;;;4.32;0.30;;;;;;;8.87;100.00;99513.91;5130612;27;20049;-65
2024/03/11 09:45:06;;;;;;;1.30;0.30;;;;;;;8.96;100.00;99518.19;5107749;27;20038;-65
2024/03/11 09:47:32;;;;;;;1.63;0.25;;;;;;;9.08;100.00;99521.28;5128891;27;20547;-65
2024/03/11 09:49:59;;;;;;;2.65;0.35;;;;;;;9.20;100.00;99525.22;5130593;27;20065;-65
2024/03/11 09:52:27;;;;;;;1.20;0.43;;;;;;;9.32;100.00;99521.34;5123822;27;20038;-65
2024/03/11 09:54:53;;;;;;;1.85;0.40;;;;;;;9.37;100.00;99521.69;5124822;27;20034;-65
2024/03/11 09:57:20;;;;;;;2.80;0.30;;;;;;;9.29;100.00;99526.88;5128081;27;20023;-66
2024/03/11 09:59:49;;;;;;;3.05;0.40;;;;;;;9.27;100.00;99523.63;5130261;27;20551;-65
2024/03/11 10:02:19;;;;;;;4.40;0.40;;;;;;;9.34;100.00;99521.19;5121953;27;20074;-65
2024/03/11 10:04:45;;;;;;;1.42;0.30;;;;;;;9.46;100.00;99523.31;5128443;27;20198;-65
2024/03/11 10:07:10;;;;;;;0.82;0.40;;;;;;;9.61;100.00;99526.09;5126660;27;20109;-65
2024/03/11 10:09:45;;;;;;;2.90;0.45;;;;;;;9.76;100.00;99521.09;5105256;28;20479;-65
2024/03/11 10:12:15;;;;;;;0.75;0.20;;;;;;;9.87;100.00;99512.97;5105275;27;20039;-65
2024/03/11 10:14:43;;;;;;;2.53;0.35;;;;;;;9.82;100.00;99516.03;5127644;27;20104;-65
2024/03/11 10:17:34;;;;;;;1.75;0.25;;;;;;;9.86;100.00;99517.34;5128785;27;20034;-65
2024/03/11 10:20:00;;;;;;;1.63;0.20;;;;;;;9.93;100.00;99527.88;5128998;27;20162;-65
2024/03/11 10:22:35;;;;;;;0.90;0.20;;;;;;;9.92;100.00;99531.50;5127069;27;20494;-65
2024/03/11 10:25:06;;;;;;;2.30;0.20;;;;;;;10.03;100.00;99538.94;5126053;27;20042;-65
2024/03/11 10:27:32;;;;;;;0.85;0.22;;;;;;;10.09;100.00;99540.91;5129138;27;20076;-65
2024/03/11 10:30:19;;;;;;;1.35;0.20;;;;;;;10.14;100.00;99532.59;5127061;27;20034;-65
2024/03/11 10:32:45;;;;;;;0.70;0.10;;;;;;;10.23;100.00;99534.25;5125839;27;20067;-65
2024/03/11 10:35:11;;;;;;;1.75;0.20;;;;;;;10.23;100.00;99532.47;5128915;27;20394;-65
2024/03/11 10:37:43;;;;;;;0.95;0.20;;;;;;;10.32;100.00;99520.25;5130152;27;20035;-65
2024/03/11 10:40:18;;;;;;;0.63;0.20;;;;;;;10.38;100.00;99530.00;5102898;27;20417;-65
2024/03/11 10:42:55;;;;;;;0.73;0.10;;;;;;;10.42;100.00;99533.06;5125967;27;20492;-66
2024/03/11 10:45:32;;;;;;;2.55;0.30;;;;;;;10.40;100.00;99530.63;5121939;27;20848;-65
2024/03/11 10:48:00;;;;;;;1.92;0.28;;;;;;;10.49;100.00;99534.03;5126749;27;20521;-65
2024/03/11 10:50:32;;;;;;;0.80;0.13;;;;;;;10.52;100.00;99533.72;5121750;27;20042;-65
2024/03/11 10:52:58;;;;;;;1.20;0.30;;;;;;;10.70;100.00;99528.28;5127805;27;20034;-65
2024/03/11 10:55:38;;;;;;;3.08;0.30;;;;;;;10.83;100.00;99532.00;5126310;27;20027;-65
2024/03/11 10:58:04;;;;;;;0.60;0.13;;;;;;;10.91;100.00;99531.13;5127085;27;20035;-65
2024/03/11 11:00:34;;;;;;;1.20;0.22;;;;;;;10.80;100.00;99521.91;5125653;27;20027;-65
2024/03/11 11:03:12;;;;;;;1.20;0.30;;;;;;;10.69;100.00;99517.06;5126860;27;20124;-65
2024/03/11 11:05:47;;;;;;;4.60;0.30;;;;;;;10.72;100.00;99515.91;5125714;27;20035;-65
2024/03/11 11:08:12;;;;;;;0.93;0.20;;;;;;;10.62;100.00;99514.31;5126528;27;20031;-65
2024/03/11 11:10:42;;;;;;;0.90;0.30;;;;;;;10.63;100.00;99510.72;5129462;27;20057;-65
2024/03/11 11:13:08;;;;;;;1.23;0.30;;;;;;;10.68;100.00;99515.44;5122043;27;20035;-66
2024/03/11 11:15:41;;;;;;;1.60;0.35;;;;;;;10.69;100.00;99517.06;5128494;27;20088;-65
2024/03/11 11:18:13;;;;;;;3.50;0.20;;;;;;;10.62;100.00;99509.09;5121799;27;20443;-65
2024/03/11 11:20:43;;;;;;;0.88;0.22;;;;;;;10.60;100.00;99518.06;5127309;27;20035;-65
2024/03/11 11:23:11;;;;;;;0.38;0.10;;;;;;;10.63;100.00;99513.34;5124721;27;20441;-65
2024/03/11 11:25:44;;;;;;;0.73;0.20;;;;;;;10.62;100.00;99503.09;5126308;27;20070;-65
2024/03/11 11:28:24;;;;;;;2.30;0.50;;;;;;;10.69;100.00;99511.03;5124944;27;20023;-65
2024/03/11 11:30:49;;;;;;;1.48;0.43;;;;;;;10.70;100.00;99500.44;5128991;27;20371;-65
2024/03/11 11:33:56;;;;;;;1.65;0.28;;;;;;;10.69;100.00;99498.81;5123527;27;20110;-65